sensor_id;sensor_type;location;lat;lon;timestamp;pressure;altitude;pressure_sealevel;temperature;humidity
15750;BME280;7976;52.526;13.326;2022-09-27T00:02:18;99212.00;;;14.15;71.39
15750;BME280;7976;52.526;13.326;2022-09-27T00:04:45;99218.94;;;14.16;71.43
15750;BME280;7976;52.526;13.326;2022-09-27T00:07:13;99213.94;;;14.13;71.47
15750;BME280;7976;52.526;13.326;2022-09-27T00:09:40;99205.06;;;14.14;71.63
15750;BME280;7976;52.526;13.326;2022-09-27T00:12:08;99201.72;;;14.12;71.59
15750;BME280;7976;52.526;13.326;2022-09-27T00:14:34;99194.78;;;14.11;71.42
15750;BME280;7976;52.526;13.326;2022-09-27T00:17:01;99190.59;;;14.09;71.54
15750;BME280;7976;52.526;13.326;2022-09-27T00:19:28;99192.47;;;14.07;71.54
15750;BME280;7976;52.526;13.326;2022-09-27T00:21:55;99193.56;;;14.04;71.60
15750;BME280;7976;52.526;13.326;2022-09-27T00:24:23;99184.72;;;14.05;71.52
15750;BME280;7976;52.526;13.326;2022-09-27T00:26:50;99190.22;;;14.02;71.75
15750;BME280;7976;52.526;13.326;2022-09-27T00:29:18;99184.97;;;14.02;71.68
15750;BME280;7976;52.526;13.326;2022-09-27T00:31:46;99184.97;;;14.02;71.71
15750;BME280;7976;52.526;13.326;2022-09-27T00:34:19;99189.28;;;14.03;71.85
15750;BME280;7976;52.526;13.326;2022-09-27T00:36:46;99176.34;;;14.00;71.69
15750;BME280;7976;52.526;13.326;2022-09-27T00:39:14;99185.19;;;13.99;71.71
15750;BME280;7976;52.526;13.326;2022-09-27T00:41:43;99182.69;;;13.98;71.85
15750;BME280;7976;52.526;13.326;2022-09-27T00:44:57;99169.41;;;13.99;71.78
15750;BME280;7976;52.526;13.326;2022-09-27T00:47:34;99171.06;;;14.00;71.56
15750;BME280;7976;52.526;13.326;2022-09-27T00:50:09;99166.53;;;14.02;71.73
15750;BME280;7976;52.526;13.326;2022-09-27T00:52:46;99169.19;;;14.02;71.49
15750;BME280;7976;52.526;13.326;2022-09-27T00:55:19;99163.06;;;14.02;71.49
15750;BME280;7976;52.526;13.326;2022-09-27T00:57:51;99162.25;;;14.01;71.17
15750;BME280;7976;52.526;13.326;2022-09-27T01:00:20;99151.97;;;13.98;71.35
15750;BME280;7976;52.526;13.326;2022-09-27T01:02:50;99151.00;;;13.99;71.28
15750;BME280;7976;52.526;13.326;2022-09-27T01:05:23;99145.88;;;13.98;71.48
15750;BME280;7976;52.526;13.326;2022-09-27T01:07:51;99143.34;;;13.96;71.72
15750;BME280;7976;52.526;13.326;2022-09-27T01:10:23;99138.09;;;13.96;71.28
15750;BME280;7976;52.526;13.326;2022-09-27T01:13:03;99132.72;;;13.98;71.78
15750;BME280;7976;52.526;13.326;2022-09-27T01:15:40;99132.59;;;13.99;71.78
15750;BME280;7976;52.526;13.326;2022-09-27T01:18:25;99126.59;;;13.97;71.59
15750;BME280;7976;52.526;13.326;2022-09-27T01:21:19;99123.25;;;13.95;71.58
15750;BME280;7976;52.526;13.326;2022-09-27T01:24:22;99119.19;;;13.91;71.78
15750;BME280;7976;52.526;13.326;2022-09-27T01:30:21;99108.81;;;13.90;71.62
15750;BME280;7976;52.526;13.326;2022-09-27T01:33:07;99104.47;;;13.88;71.50
15750;BME280;7976;52.526;13.326;2022-09-27T01:36:04;99106.16;;;13.90;71.68
15750;BME280;7976;52.526;13.326;2022-09-27T01:38:44;99110.47;;;13.91;71.81
15750;BME280;7976;52.526;13.326;2022-09-27T01:41:26;99107.84;;;13.91;71.54
15750;BME280;7976;52.526;13.326;2022-09-27T01:44:24;99098.28;;;13.90;71.31
15750;BME280;7976;52.526;13.326;2022-09-27T01:47:08;99098.16;;;13.91;71.65
15750;BME280;7976;52.526;13.326;2022-09-27T01:49:55;99093.84;;;13.90;71.55
15750;BME280;7976;52.526;13.326;2022-09-27T01:52:32;99089.53;;;13.89;71.57
15750;BME280;7976;52.526;13.326;2022-09-27T01:55:05;99081.53;;;13.91;71.64
15750;BME280;7976;52.526;13.326;2022-09-27T01:57:58;99082.38;;;13.91;71.50
15750;BME280;7976;52.526;13.326;2022-09-27T02:00:27;99080.69;;;13.90;71.42
15750;BME280;7976;52.526;13.326;2022-09-27T02:02:59;99077.94;;;13.92;71.63
15750;BME280;7976;52.526;13.326;2022-09-27T02:05:38;99075.44;;;13.90;71.52
15750;BME280;7976;52.526;13.326;2022-09-27T02:08:48;99060.63;;;13.89;71.51
15750;BME280;7976;52.526;13.326;2022-09-27T02:11:28;99049.13;;;13.90;71.61
15750;BME280;7976;52.526;13.326;2022-09-27T02:14:17;99057.75;;;13.92;71.53
15750;BME280;7976;52.526;13.326;2022-09-27T02:16:51;99046.97;;;13.95;71.41
15750;BME280;7976;52.526;13.326;2022-09-27T02:19:37;99042.56;;;13.96;71.24
15750;BME280;7976;52.526;13.326;2022-09-27T02:22:15;99044.34;;;13.95;71.48
15750;BME280;7976;52.526;13.326;2022-09-27T02:24:54;99043.41;;;13.96;71.23
15750;BME280;7976;52.526;13.326;2022-09-27T02:27:30;99035.38;;;13.98;71.24
15750;BME280;7976;52.526;13.326;2022-09-27T02:30:10;99034.41;;;13.99;71.40
15750;BME280;7976;52.526;13.326;2022-09-27T02:32:40;99034.28;;;14.00;71.56
15750;BME280;7976;52.526;13.326;2022-09-27T02:35:14;99023.56;;;14.03;71.21
15750;BME280;7976;52.526;13.326;2022-09-27T02:37:43;99030.47;;;14.04;71.39
15750;BME280;7976;52.526;13.326;2022-09-27T02:40:11;99028.81;;;14.03;71.15
15750;BME280;7976;52.526;13.326;2022-09-27T02:42:39;99019.84;;;14.06;71.68
15750;BME280;7976;52.526;13.326;2022-09-27T02:45:10;99017.94;;;14.08;71.58
15750;BME280;7976;52.526;13.326;2022-09-27T02:47:58;99008.25;;;14.08;71.60
15750;BME280;7976;52.526;13.326;2022-09-27T02:50:59;99009.91;;;14.09;71.44
15750;BME280;7976;52.526;13.326;2022-09-27T02:53:52;99003.94;;;14.07;71.35
15750;BME280;7976;52.526;13.326;2022-09-27T02:57:10;99010.16;;;14.06;71.22
15750;BME280;7976;52.526;13.326;2022-09-27T03:00:06;99000.34;;;14.08;71.13
15750;BME280;7976;52.526;13.326;2022-09-27T03:03:02;99004.66;;;14.09;71.34
15750;BME280;7976;52.526;13.326;2022-09-27T03:05:52;99004.78;;;14.08;70.89
15750;BME280;7976;52.526;13.326;2022-09-27T03:08:23;99006.56;;;14.07;71.43
15750;BME280;7976;52.526;13.326;2022-09-27T03:10:50;98997.81;;;14.07;71.36
15750;BME280;7976;52.526;13.326;2022-09-27T03:13:17;99002.25;;;14.06;71.03
15750;BME280;7976;52.526;13.326;2022-09-27T03:15:45;98998.06;;;14.04;71.19
15750;BME280;7976;52.526;13.326;2022-09-27T03:18:18;98998.91;;;14.04;71.43
15750;BME280;7976;52.526;13.326;2022-09-27T03:21:15;98997.25;;;14.03;71.70
15750;BME280;7976;52.526;13.326;2022-09-27T03:23:42;98990.06;;;14.05;71.92
15750;BME280;7976;52.526;13.326;2022-09-27T03:26:09;98976.22;;;14.03;72.28
15750;BME280;7976;52.526;13.326;2022-09-27T03:28:36;98979.78;;;14.02;72.03
15750;BME280;7976;52.526;13.326;2022-09-27T03:31:04;98982.16;;;14.05;72.01
15750;BME280;7976;52.526;13.326;2022-09-27T03:33:54;98976.91;;;14.05;72.08
15750;BME280;7976;52.526;13.326;2022-09-27T03:36:22;98979.53;;;14.05;72.13
15750;BME280;7976;52.526;13.326;2022-09-27T03:38:49;98977.88;;;14.04;72.15
15750;BME280;7976;52.526;13.326;2022-09-27T03:41:17;98974.53;;;14.02;72.34
15750;BME280;7976;52.526;13.326;2022-09-27T03:43:44;98978.94;;;14.02;72.20
15750;BME280;7976;52.526;13.326;2022-09-27T03:46:11;98977.28;;;14.01;72.39
15750;BME280;7976;52.526;13.326;2022-09-27T03:48:38;98969.50;;;13.99;72.67
15750;BME280;7976;52.526;13.326;2022-09-27T03:51:07;98968.06;;;13.95;72.67
15750;BME280;7976;52.526;13.326;2022-09-27T03:53:38;98966.41;;;13.94;73.34
15750;BME280;7976;52.526;13.326;2022-09-27T03:56:05;98973.34;;;13.95;73.85
15750;BME280;7976;52.526;13.326;2022-09-27T03:58:33;98965.44;;;13.95;74.32
15750;BME280;7976;52.526;13.326;2022-09-27T04:01:00;98964.84;;;13.92;74.43
15750;BME280;7976;52.526;13.326;2022-09-27T04:03:29;98953.03;;;13.86;74.38
15750;BME280;7976;52.526;13.326;2022-09-27T04:06:25;98954.94;;;13.84;74.50
15750;BME280;7976;52.526;13.326;2022-09-27T04:08:54;98951.84;;;13.79;74.89
15750;BME280;7976;52.526;13.326;2022-09-27T04:11:24;98951.97;;;13.77;75.18
15750;BME280;7976;52.526;13.326;2022-09-27T04:13:53;98949.59;;;13.74;75.34
15750;BME280;7976;52.526;13.326;2022-09-27T04:16:21;98948.03;;;13.72;75.58
15750;BME280;7976;52.526;13.326;2022-09-27T04:19:07;98946.38;;;13.71;75.93
15750;BME280;7976;52.526;13.326;2022-09-27T04:21:37;98947.91;;;13.73;76.44
15750;BME280;7976;52.526;13.326;2022-09-27T04:24:07;98946.13;;;13.74;76.55
15750;BME280;7976;52.526;13.326;2022-09-27T04:26:36;98946.97;;;13.74;76.84
15750;BME280;7976;52.526;13.326;2022-09-27T04:29:09;98945.16;;;13.75;77.15
15750;BME280;7976;52.526;13.326;2022-09-27T04:31:40;98946.38;;;13.71;77.00
15750;BME280;7976;52.526;13.326;2022-09-27T04:34:22;98944.00;;;13.68;77.06
15750;BME280;7976;52.526;13.326;2022-09-27T04:37:10;98937.88;;;13.67;77.33
15750;BME280;7976;52.526;13.326;2022-09-27T04:39:45;98950.06;;;13.68;77.74
15750;BME280;7976;52.526;13.326;2022-09-27T04:42:13;98948.66;;;13.64;78.20
15750;BME280;7976;52.526;13.326;2022-09-27T04:44:40;98952.59;;;13.59;78.09
15750;BME280;7976;52.526;13.326;2022-09-27T04:47:08;98951.13;;;13.55;78.46
15750;BME280;7976;52.526;13.326;2022-09-27T04:49:35;98950.66;;;13.50;78.60
15750;BME280;7976;52.526;13.326;2022-09-27T04:52:04;98950.19;;;13.45;79.07
15750;BME280;7976;52.526;13.326;2022-09-27T04:54:31;98951.41;;;13.41;79.68
15750;BME280;7976;52.526;13.326;2022-09-27T04:57:10;98949.09;;;13.36;79.95
15750;BME280;7976;52.526;13.326;2022-09-27T04:59:39;98950.06;;;13.35;80.55
15750;BME280;7976;52.526;13.326;2022-09-27T05:02:07;98945.19;;;13.31;81.04
15750;BME280;7976;52.526;13.326;2022-09-27T05:04:53;98944.69;;;13.26;81.54
15750;BME280;7976;52.526;13.326;2022-09-27T05:07:21;98939.69;;;13.23;81.73
15750;BME280;7976;52.526;13.326;2022-09-27T05:09:53;98951.38;;;13.19;81.79
15750;BME280;7976;52.526;13.326;2022-09-27T05:12:21;98949.00;;;13.16;82.10
15750;BME280;7976;52.526;13.326;2022-09-27T05:14:55;98948.28;;;13.14;82.15
15750;BME280;7976;52.526;13.326;2022-09-27T05:17:42;98937.75;;;13.14;82.91
15750;BME280;7976;52.526;13.326;2022-09-27T05:20:29;98950.78;;;13.15;83.26
15750;BME280;7976;52.526;13.326;2022-09-27T05:23:12;98944.78;;;13.13;83.22
15750;BME280;7976;52.526;13.326;2022-09-27T05:25:40;98946.81;;;13.10;83.58
15750;BME280;7976;52.526;13.326;2022-09-27T05:28:09;98947.66;;;13.10;83.91
15750;BME280;7976;52.526;13.326;2022-09-27T05:30:36;98952.91;;;13.10;84.32
15750;BME280;7976;52.526;13.326;2022-09-27T05:33:07;98952.91;;;13.10;84.85
15750;BME280;7976;52.526;13.326;2022-09-27T05:35:51;98955.66;;;13.09;85.16
15750;BME280;7976;52.526;13.326;2022-09-27T05:38:20;98955.66;;;13.09;85.57
15750;BME280;7976;52.526;13.326;2022-09-27T05:40:49;98960.19;;;13.07;85.91
15750;BME280;7976;52.526;13.326;2022-09-27T05:43:18;98951.59;;;13.05;86.19
15750;BME280;7976;52.526;13.326;2022-09-27T05:45:47;98953.50;;;13.03;86.33
15750;BME280;7976;52.526;13.326;2022-09-27T05:48:16;98954.44;;;13.02;86.73
15750;BME280;7976;52.526;13.326;2022-09-27T05:50:51;98943.72;;;13.05;86.99
15750;BME280;7976;52.526;13.326;2022-09-27T05:53:18;98948.75;;;13.08;87.18
15750;BME280;7976;52.526;13.326;2022-09-27T05:55:44;98947.78;;;13.09;87.33
15750;BME280;7976;52.526;13.326;2022-09-27T05:58:13;98953.03;;;13.09;87.69
15750;BME280;7976;52.526;13.326;2022-09-27T06:00:49;98949.44;;;13.10;87.55
15750;BME280;7976;52.526;13.326;2022-09-27T06:03:48;98941.81;;;13.07;87.90
15750;BME280;7976;52.526;13.326;2022-09-27T06:06:38;98942.91;;;13.04;88.02
15750;BME280;7976;52.526;13.326;2022-09-27T06:09:10;98943.94;;;13.02;88.40
15750;BME280;7976;52.526;13.326;2022-09-27T06:11:38;98941.66;;;12.97;87.89
15750;BME280;7976;52.526;13.326;2022-09-27T06:14:05;98941.03;;;12.94;88.41
15750;BME280;7976;52.526;13.326;2022-09-27T06:16:40;98941.88;;;12.94;88.81
15750;BME280;7976;52.526;13.326;2022-09-27T06:19:08;98941.66;;;12.97;88.96
15750;BME280;7976;52.526;13.326;2022-09-27T06:21:35;98943.31;;;12.98;89.03
15750;BME280;7976;52.526;13.326;2022-09-27T06:24:03;98937.25;;;12.98;89.03
15750;BME280;7976;52.526;13.326;2022-09-27T06:26:33;98932.81;;;12.98;89.39
15750;BME280;7976;52.526;13.326;2022-09-27T06:29:13;98944.16;;;12.99;89.18
15750;BME280;7976;52.526;13.326;2022-09-27T06:31:56;98947.63;;;12.99;89.27
15750;BME280;7976;52.526;13.326;2022-09-27T06:34:32;98951.69;;;13.03;89.43
15750;BME280;7976;52.526;13.326;2022-09-27T06:36:59;98952.31;;;13.07;89.35
15750;BME280;7976;52.526;13.326;2022-09-27T06:39:27;98943.72;;;13.05;89.32
15750;BME280;7976;52.526;13.326;2022-09-27T06:42:17;98947.41;;;13.02;89.40
15750;BME280;7976;52.526;13.326;2022-09-27T06:45:11;98949.19;;;13.02;89.27
15750;BME280;7976;52.526;13.326;2022-09-27T06:47:59;98944.03;;;13.00;89.54
15750;BME280;7976;52.526;13.326;2022-09-27T06:50:47;98952.03;;;12.99;89.62
15750;BME280;7976;52.526;13.326;2022-09-27T06:53:15;98951.81;;;13.02;89.90
15750;BME280;7976;52.526;13.326;2022-09-27T06:55:45;98952.75;;;13.01;89.81
15750;BME280;7976;52.526;13.326;2022-09-27T06:58:12;98950.38;;;12.98;89.90
15750;BME280;7976;52.526;13.326;2022-09-27T07:01:15;98953.19;;;12.95;90.71
15750;BME280;7976;52.526;13.326;2022-09-27T07:04:15;98955.00;;;12.94;90.64
15750;BME280;7976;52.526;13.326;2022-09-27T07:06:52;98954.91;;;12.96;90.69
15750;BME280;7976;52.526;13.326;2022-09-27T07:09:22;98956.78;;;12.94;90.85
15750;BME280;7976;52.526;13.326;2022-09-27T07:11:49;98961.44;;;12.90;91.47
15750;BME280;7976;52.526;13.326;2022-09-27T07:14:16;98951.78;;;12.91;91.37
15750;BME280;7976;52.526;13.326;2022-09-27T07:16:44;98957.97;;;12.90;91.52
15750;BME280;7976;52.526;13.326;2022-09-27T07:19:12;98953.69;;;12.89;91.63
15750;BME280;7976;52.526;13.326;2022-09-27T07:22:22;98953.91;;;12.86;91.68
15750;BME280;7976;52.526;13.326;2022-09-27T07:25:13;98949.84;;;12.82;91.99
15750;BME280;7976;52.526;13.326;2022-09-27T07:28:23;98951.00;;;12.78;92.07
15750;BME280;7976;52.526;13.326;2022-09-27T07:30:54;98963.19;;;12.79;92.08
15750;BME280;7976;52.526;13.326;2022-09-27T07:33:22;98955.31;;;12.79;92.69
15750;BME280;7976;52.526;13.326;2022-09-27T07:35:49;98956.06;;;12.81;92.55
15750;BME280;7976;52.526;13.326;2022-09-27T07:38:17;98959.38;;;12.83;92.84
15750;BME280;7976;52.526;13.326;2022-09-27T07:40:44;98958.44;;;12.84;93.02
15750;BME280;7976;52.526;13.326;2022-09-27T07:43:11;98958.22;;;12.87;93.02
15750;BME280;7976;52.526;13.326;2022-09-27T07:45:39;98955.34;;;12.90;93.05
15750;BME280;7976;52.526;13.326;2022-09-27T07:48:19;98951.78;;;12.91;93.19
15750;BME280;7976;52.526;13.326;2022-09-27T07:50:57;98957.75;;;12.93;93.42
15750;BME280;7976;52.526;13.326;2022-09-27T07:53:42;98955.13;;;12.93;93.29
15750;BME280;7976;52.526;13.326;2022-09-27T07:56:30;98955.94;;;12.93;93.66
15750;BME280;7976;52.526;13.326;2022-09-27T07:58:57;98946.78;;;12.88;93.49
15750;BME280;7976;52.526;13.326;2022-09-27T08:01:24;98957.16;;;12.89;93.74
15750;BME280;7976;52.526;13.326;2022-09-27T08:03:51;98961.44;;;12.90;94.04
15750;BME280;7976;52.526;13.326;2022-09-27T08:06:19;98960.59;;;12.90;93.59
15750;BME280;7976;52.526;13.326;2022-09-27T08:08:49;98960.59;;;12.90;93.82
15750;BME280;7976;52.526;13.326;2022-09-27T08:11:18;98959.41;;;12.94;93.77
15750;BME280;7976;52.526;13.326;2022-09-27T08:13:48;98953.19;;;12.95;93.90
15750;BME280;7976;52.526;13.326;2022-09-27T08:16:18;98964.56;;;12.95;93.79
15750;BME280;7976;52.526;13.326;2022-09-27T08:19:03;98962.03;;;12.94;93.88
15750;BME280;7976;52.526;13.326;2022-09-27T08:21:43;98970.78;;;12.94;93.96
15750;BME280;7976;52.526;13.326;2022-09-27T08:24:23;98956.78;;;12.94;94.04
15750;BME280;7976;52.526;13.326;2022-09-27T08:27:14;98970.53;;;12.97;94.40
15750;BME280;7976;52.526;13.326;2022-09-27T08:29:46;98965.28;;;12.97;94.09
15750;BME280;7976;52.526;13.326;2022-09-27T08:32:15;98962.91;;;12.94;94.10
15750;BME280;7976;52.526;13.326;2022-09-27T08:34:43;98962.28;;;12.91;93.99
15750;BME280;7976;52.526;13.326;2022-09-27T08:37:10;98962.28;;;12.91;93.89
15750;BME280;7976;52.526;13.326;2022-09-27T08:39:39;98968.97;;;12.95;94.24
15750;BME280;7976;52.526;13.326;2022-09-27T08:42:19;98967.91;;;12.97;94.37
15750;BME280;7976;52.526;13.326;2022-09-27T08:45:00;98967.66;;;13.00;94.25
15750;BME280;7976;52.526;13.326;2022-09-27T08:47:34;98967.34;;;13.05;94.33
15750;BME280;7976;52.526;13.326;2022-09-27T08:50:14;98968.06;;;13.07;94.20
15750;BME280;7976;52.526;13.326;2022-09-27T08:52:50;98973.31;;;13.07;93.83
15750;BME280;7976;52.526;13.326;2022-09-27T08:55:29;98975.59;;;13.11;94.03
15750;BME280;7976;52.526;13.326;2022-09-27T08:57:58;98969.88;;;13.17;93.79
15750;BME280;7976;52.526;13.326;2022-09-27T09:00:28;98978.50;;;13.19;93.79
15750;BME280;7976;52.526;13.326;2022-09-27T09:02:57;98978.13;;;13.24;93.68
15750;BME280;7976;52.526;13.326;2022-09-27T09:05:31;98971.69;;;13.28;93.69
15750;BME280;7976;52.526;13.326;2022-09-27T09:08:28;98962.38;;;13.35;93.64
15750;BME280;7976;52.526;13.326;2022-09-27T09:11:08;98965.25;;;13.43;93.29
15750;BME280;7976;52.526;13.326;2022-09-27T09:14:24;98963.31;;;13.45;93.07
15750;BME280;7976;52.526;13.326;2022-09-27T09:17:08;98970.41;;;13.44;92.95
15750;BME280;7976;52.526;13.326;2022-09-27T09:20:13;98970.03;;;13.49;92.90
15750;BME280;7976;52.526;13.326;2022-09-27T09:23:24;98968.72;;;13.54;92.85
15750;BME280;7976;52.526;13.326;2022-09-27T09:26:04;98960.59;;;13.57;92.71
15750;BME280;7976;52.526;13.326;2022-09-27T09:28:54;98961.44;;;13.58;92.81
15750;BME280;7976;52.526;13.326;2022-09-27T09:31:39;98954.50;;;13.57;92.63
15750;BME280;7976;52.526;13.326;2022-09-27T09:34:15;98961.91;;;13.63;92.47
15750;BME280;7976;52.526;13.326;2022-09-27T09:36:49;98958.78;;;13.69;92.39
15750;BME280;7976;52.526;13.326;2022-09-27T09:39:24;98966.44;;;13.72;91.96
15750;BME280;7976;52.526;13.326;2022-09-27T09:42:09;98967.41;;;13.71;91.90
15750;BME280;7976;52.526;13.326;2022-09-27T09:44:47;98966.31;;;13.73;91.86
15750;BME280;7976;52.526;13.326;2022-09-27T09:47:26;98965.50;;;13.73;91.42
15750;BME280;7976;52.526;13.326;2022-09-27T09:50:00;98967.66;;;13.68;91.43
15750;BME280;7976;52.526;13.326;2022-09-27T09:52:39;98968.59;;;13.67;91.29
15750;BME280;7976;52.526;13.326;2022-09-27T09:55:18;98964.19;;;13.67;91.60
15750;BME280;7976;52.526;13.326;2022-09-27T09:58:00;98962.88;;;13.73;91.33
15750;BME280;7976;52.526;13.326;2022-09-27T10:00:37;98954.59;;;13.77;90.97
15750;BME280;7976;52.526;13.326;2022-09-27T10:03:06;98966.53;;;13.81;91.03
15750;BME280;7976;52.526;13.326;2022-09-27T10:05:33;98957.34;;;13.87;90.97
15750;BME280;7976;52.526;13.326;2022-09-27T10:08:11;98956.00;;;13.93;90.91
15750;BME280;7976;52.526;13.326;2022-09-27T10:10:41;98948.72;;;13.96;90.54
15750;BME280;7976;52.526;13.326;2022-09-27T10:13:34;98953.84;;;13.98;90.15
15750;BME280;7976;52.526;13.326;2022-09-27T10:16:07;98948.72;;;13.96;90.32
15750;BME280;7976;52.526;13.326;2022-09-27T10:18:40;98943.59;;;13.95;90.34
15750;BME280;7976;52.526;13.326;2022-09-27T10:21:17;98941.50;;;14.09;90.30
15750;BME280;7976;52.526;13.326;2022-09-27T10:24:04;98943.41;;;14.18;89.79
15750;BME280;7976;52.526;13.326;2022-09-27T10:27:00;98946.59;;;14.22;89.89
15750;BME280;7976;52.526;13.326;2022-09-27T10:29:35;98952.25;;;14.17;89.53
15750;BME280;7976;52.526;13.326;2022-09-27T10:32:20;98950.84;;;14.13;89.51
15750;BME280;7976;52.526;13.326;2022-09-27T10:34:47;98940.41;;;14.12;89.48
15750;BME280;7976;52.526;13.326;2022-09-27T10:37:20;98944.28;;;14.08;89.53
15750;BME280;7976;52.526;13.326;2022-09-27T10:40:32;98947.97;;;14.05;89.50
15750;BME280;7976;52.526;13.326;2022-09-27T10:43:25;98943.28;;;14.09;89.44
15750;BME280;7976;52.526;13.326;2022-09-27T10:46:23;98934.53;;;14.19;89.43
15750;BME280;7976;52.526;13.326;2022-09-27T10:49:15;98943.41;;;14.29;88.94
15750;BME280;7976;52.526;13.326;2022-09-27T10:51:55;98933.78;;;14.39;88.70
15750;BME280;7976;52.526;13.326;2022-09-27T10:54:31;98925.38;;;14.45;88.58
15750;BME280;7976;52.526;13.326;2022-09-27T10:57:19;98937.91;;;14.53;87.98
15750;BME280;7976;52.526;13.326;2022-09-27T10:59:58;98941.75;;;14.49;87.84
15750;BME280;7976;52.526;13.326;2022-09-27T11:02:31;98943.81;;;14.45;87.75
15750;BME280;7976;52.526;13.326;2022-09-27T11:05:10;98943.84;;;14.34;87.33
15750;BME280;7976;52.526;13.326;2022-09-27T11:07:49;98939.56;;;14.22;87.58
15750;BME280;7976;52.526;13.326;2022-09-27T11:10:26;98944.00;;;14.11;87.81
15750;BME280;7976;52.526;13.326;2022-09-27T11:13:11;98952.53;;;14.03;88.53
15750;BME280;7976;52.526;13.326;2022-09-27T11:16:09;98942.63;;;13.96;88.83
15750;BME280;7976;52.526;13.326;2022-09-27T11:18:56;98941.22;;;13.80;89.78
15750;BME280;7976;52.526;13.326;2022-09-27T11:21:43;98937.03;;;13.78;90.62
15750;BME280;7976;52.526;13.326;2022-09-27T11:24:43;98931.78;;;13.78;91.51
15750;BME280;7976;52.526;13.326;2022-09-27T11:27:38;98940.50;;;13.78;91.84
15750;BME280;7976;52.526;13.326;2022-09-27T11:30:13;98940.38;;;13.80;92.44
15750;BME280;7976;52.526;13.326;2022-09-27T11:33:31;98938.22;;;13.74;92.44
15750;BME280;7976;52.526;13.326;2022-09-27T11:36:12;98943.25;;;13.77;92.80
15750;BME280;7976;52.526;13.326;2022-09-27T11:38:59;98950.19;;;13.78;93.05
15750;BME280;7976;52.526;13.326;2022-09-27T11:41:52;98945.03;;;13.76;92.80
15750;BME280;7976;52.526;13.326;2022-09-27T11:45:09;98975.41;;;13.58;92.85
15750;BME280;7976;52.526;13.326;2022-09-27T11:47:56;98978.00;;;13.25;92.69
15750;BME280;7976;52.526;13.326;2022-09-27T11:51:07;98981.59;;;12.90;93.04
15750;BME280;7976;52.526;13.326;2022-09-27T11:53:58;98990.09;;;12.58;94.07
15750;BME280;7976;52.526;13.326;2022-09-27T11:56:43;98990.25;;;12.44;94.74
15750;BME280;7976;52.526;13.326;2022-09-27T12:00:06;98989.72;;;12.28;95.50
15750;BME280;7976;52.526;13.326;2022-09-27T12:06:48;98998.22;;;12.19;97.07
15750;BME280;7976;52.526;13.326;2022-09-27T12:09:29;98997.50;;;12.17;97.19
15750;BME280;7976;52.526;13.326;2022-09-27T12:12:04;98995.22;;;12.13;97.57
15750;BME280;7976;52.526;13.326;2022-09-27T12:14:44;99000.22;;;12.16;98.12
15750;BME280;7976;52.526;13.326;2022-09-27T12:17:17;98996.44;;;12.20;98.46
15750;BME280;7976;52.526;13.326;2022-09-27T12:19:52;99004.81;;;12.25;98.61
15750;BME280;7976;52.526;13.326;2022-09-27T12:22:40;99007.56;;;12.23;98.83
15750;BME280;7976;52.526;13.326;2022-09-27T12:25:13;99004.22;;;12.21;98.68
15750;BME280;7976;52.526;13.326;2022-09-27T12:27:50;99006.59;;;12.24;99.09
15750;BME280;7976;52.526;13.326;2022-09-27T12:30:21;99007.72;;;12.33;99.59
15750;BME280;7976;52.526;13.326;2022-09-27T12:33:00;99007.31;;;12.39;99.43
15750;BME280;7976;52.526;13.326;2022-09-27T12:35:35;99005.25;;;12.42;99.44
15750;BME280;7976;52.526;13.326;2022-09-27T12:38:14;99003.56;;;12.54;99.82
15750;BME280;7976;52.526;13.326;2022-09-27T12:40:47;99000.19;;;12.76;100.00
15750;BME280;7976;52.526;13.326;2022-09-27T12:43:20;99002.88;;;12.98;100.00
15750;BME280;7976;52.526;13.326;2022-09-27T12:46:11;99002.25;;;13.18;99.94
15750;BME280;7976;52.526;13.326;2022-09-27T12:48:51;99007.88;;;13.24;99.78
15750;BME280;7976;52.526;13.326;2022-09-27T12:51:22;99000.19;;;13.21;99.29
15750;BME280;7976;52.526;13.326;2022-09-27T12:54:27;99008.69;;;13.14;99.31
15750;BME280;7976;52.526;13.326;2022-09-27T12:57:04;99002.31;;;13.05;99.30
15750;BME280;7976;52.526;13.326;2022-09-27T12:59:51;99011.28;;;13.03;99.71
15750;BME280;7976;52.526;13.326;2022-09-27T13:03:01;99004.53;;;12.99;99.60
15750;BME280;7976;52.526;13.326;2022-09-27T13:06:09;99002.66;;;13.01;99.70
15750;BME280;7976;52.526;13.326;2022-09-27T13:12:08;99011.78;;;13.08;99.58
15750;BME280;7976;52.526;13.326;2022-09-27T13:14:53;99010.94;;;13.07;99.39
15750;BME280;7976;52.526;13.326;2022-09-27T13:17:50;99020.72;;;13.05;99.28
15750;BME280;7976;52.526;13.326;2022-09-27T13:20:43;99021.31;;;13.09;99.36
15750;BME280;7976;52.526;13.326;2022-09-27T13:23:57;99016.31;;;13.17;99.25
15750;BME280;7976;52.526;13.326;2022-09-27T13:26:45;99016.56;;;13.25;98.98
15750;BME280;7976;52.526;13.326;2022-09-27T13:29:31;99018.25;;;13.26;98.76
15750;BME280;7976;52.526;13.326;2022-09-27T13:32:19;99027.31;;;13.22;98.51
15750;BME280;7976;52.526;13.326;2022-09-27T13:35:18;99027.69;;;13.17;98.57
15750;BME280;7976;52.526;13.326;2022-09-27T13:37:52;99026.72;;;13.18;98.87
15750;BME280;7976;52.526;13.326;2022-09-27T13:40:31;99028.72;;;13.15;98.63
15750;BME280;7976;52.526;13.326;2022-09-27T13:43:51;99025.41;;;13.13;99.00
15750;BME280;7976;52.526;13.326;2022-09-27T13:46:47;99023.94;;;13.09;98.64
15750;BME280;7976;52.526;13.326;2022-09-27T13:49:22;99035.06;;;13.12;98.91
15750;BME280;7976;52.526;13.326;2022-09-27T13:52:24;99026.81;;;13.17;98.45
15750;BME280;7976;52.526;13.326;2022-09-27T13:55:43;99028.28;;;13.21;98.08
15750;BME280;7976;52.526;13.326;2022-09-27T13:58:51;99028.03;;;13.24;98.04
15750;BME280;7976;52.526;13.326;2022-09-27T14:01:51;99039.41;;;13.24;97.90
15750;BME280;7976;52.526;13.326;2022-09-27T14:04:28;99032.44;;;13.23;97.23
15750;BME280;7976;52.526;13.326;2022-09-27T14:06:59;99035.69;;;13.27;97.47
15750;BME280;7976;52.526;13.326;2022-09-27T14:09:31;99044.91;;;13.32;97.39
15750;BME280;7976;52.526;13.326;2022-09-27T14:12:11;99040.59;;;13.31;97.23
15750;BME280;7976;52.526;13.326;2022-09-27T14:14:45;99045.03;;;13.31;97.04